M I D A S
Marine Information and Data Acquisition System
Tripno 1448 of the Zeeleeuw from 2008-03-31 08:09:42 to 2008-03-31 13:50:21
Back to CruiseResearch ActivitiesStationsMapUnderway DataData graphs

EquipmentUnitsComment
TimeDGPSUTC
LatitudeDGPSDM.mWGS84
LongitudeDGPSDM.mWGS84
TemperatureSBE03/SBE38deg celciusITS90
ConductivitySBE21S/mITS90
SalinitySBE21 Practical Salinity Units
ChlorophylAChelsea fluorimeterg/lCalibrated in Aceton
Missing or incorrect values are displayed as -999
Sea surface data collected by the RV Zeeleeuw from 2008-03-31 08:05:06 to 2008-03-31 14:01:52
Time Latitude Longitude Temperature Conductivity Salinity ChlorophylA
2008-03-31 08:06:11 51°13.674 2°55.928 12.5503 0.147799 0.829362 -1.731873
2008-03-31 08:07:11 51°13.698 2°55.825 12.553 0.147696 0.828936 -1.731873
2008-03-31 08:08:11 51°13.707 2°55.748 12.5559 0.147696 0.829099 -1.731873
2008-03-31 08:09:11 51°13.714 2°55.722 12.5586 0.147696 0.829278 -1.731873
2008-03-31 08:10:11 51°13.727 2°55.728 12.5621 0.147593 0.828821 -1.731873
2008-03-31 08:11:11 51°13.72 2°55.719 12.5648 0.147593 0.828985 -1.731873
2008-03-31 08:12:10 51°13.759 2°55.691 12.5675 0.147593 0.829119 -1.731873
2008-03-31 08:13:11 51°13.835 2°55.632 12.5701 0.147593 0.829297 -1.731873
2008-03-31 08:14:11 51°13.913 2°55.576 12.5733 0.14749 0.82887 -1.731873
2008-03-31 08:15:11 51°13.982 2°55.527 12.5769 0.14749 0.829019 -1.731873
2008-03-31 08:16:11 51°14.049 2°55.476 12.5811 0.14749 0.829183 -1.731873
2008-03-31 08:17:11 51°14.117 2°55.422 12.585 0.147387 0.828726 -1.731873
2008-03-31 08:18:11 51°14.194 2°55.347 12.5891 0.147387 0.828875 -1.731873
2008-03-31 08:19:10 51°14.264 2°55.247 12.5932 0.147387 0.829024 -1.731873
2008-03-31 08:20:08 51°14.334 2°55.114 12.597 0.147387 0.829143 -1.731873
2008-03-31 08:21:07 51°14.471 2°54.986 12.6011 0.147284 0.828701 -1.731873
2008-03-31 08:22:07 51°14.673 2°55.001 12.6069 0.147284 0.828865 -1.731873
2008-03-31 08:23:07 51°14.881 2°54.968 12.6141 0.147284 0.829073 -1.731873
2008-03-31 08:24:07 51°15.041 2°54.759 12.6195 0.147284 0.829237 -1.731873
2008-03-31 08:25:08 51°15.139 2°54.469 12.6251 0.147181 0.828735 -1.731873
2008-03-31 08:26:07 51°15.218 2°54.17 12.6311 0.147181 0.828929 -1.731873
2008-03-31 08:27:08 51°15.288 2°53.851 12.6375 0.147181 0.829123 -1.766697
2008-03-31 08:28:07 51°15.337 2°53.539 12.6444 0.147181 0.829287 -1.731873
2008-03-31 08:29:08 51°15.36 2°53.211 12.651 0.147078 0.828845 -1.731873
2008-03-31 08:30:07 51°15.385 2°52.892 12.6584 0.147078 0.828994 -1.731873
2008-03-31 08:31:07 51°15.411 2°52.568 12.6661 0.147078 0.829158 -1.731873
2008-03-31 08:32:07 51°15.431 2°52.243 12.6736 0.146975 0.828715 -1.731873
2008-03-31 08:33:07 51°15.434 2°51.918 12.6817 0.146975 0.828865 -1.731873
2008-03-31 08:34:07 51°15.446 2°51.592 12.6895 0.146975 0.829044 -1.731873
2008-03-31 08:35:07 51°15.461 2°51.267 12.6982 0.146975 0.829224 -1.731873
2008-03-31 08:36:07 51°15.482 2°50.943 12.7067 0.146872 0.828795 -1.731873
2008-03-31 08:37:07 51°15.508 2°50.619 12.7156 0.146872 0.828975 -1.731873
2008-03-31 08:38:08 51°15.532 2°50.288 12.7252 0.146872 0.829154 -1.731873
2008-03-31 08:39:08 51°15.56 2°49.962 12.7346 0.14677 0.828726 -1.731873
2008-03-31 08:40:07 51°15.584 2°49.641 12.7446 0.14677 0.828875 -1.731873
2008-03-31 08:41:08 51°15.609 2°49.31 12.7538 0.14677 0.82904 -1.731873
2008-03-31 08:42:07 51°15.643 2°48.994 12.7637 0.14677 0.82919 -1.731873
2008-03-31 08:43:08 51°15.754 2°48.706 12.7741 0.146667 0.828776 -1.731873
2008-03-31 08:44:07 51°15.867 2°48.429 12.7841 0.146667 0.828941 -1.731873
2008-03-31 08:45:08 51°15.943 2°48.116 12.7951 0.146667 0.829091 -1.731873
2008-03-31 08:46:07 51°15.988 2°47.8 12.8052 0.146564 0.828647 -1.731873
2008-03-31 08:47:07 51°16.027 2°47.476 12.816 0.146564 0.828797 -1.731873
2008-03-31 08:48:08 51°16.067 2°47.147 12.8269 0.146564 0.828962 -1.731873
2008-03-31 08:49:07 51°16.103 2°46.829 12.8383 0.146564 0.829097 -1.766697
2008-03-31 08:50:07 51°16.139 2°46.506 12.8501 0.146461 0.828653 -1.731873
2008-03-31 08:51:07 51°16.179 2°46.184 12.8618 0.146461 0.828803 -1.731873
2008-03-31 08:52:08 51°16.229 2°45.858 12.8736 0.146461 0.828953 -1.731873
2008-03-31 08:53:07 51°16.296 2°45.548 12.8848 0.146461 0.829103 -1.731873
2008-03-31 08:54:08 51°16.382 2°45.234 12.8972 0.146358 0.828643 -1.731873
2008-03-31 08:55:08 51°16.486 2°44.939 12.9096 0.146358 0.828809 -1.731873
2008-03-31 08:56:07 51°16.591 2°44.652 12.9223 0.146358 0.828959 -1.731873
2008-03-31 08:57:08 51°16.709 2°44.362 12.9348 0.146358 0.829079 -1.731873
2008-03-31 08:58:07 51°16.827 2°44.086 12.9479 0.146255 0.828649 -1.731873
2008-03-31 08:59:07 51°16.943 2°43.802 12.9602 0.146255 0.828785 -1.731873
2008-03-31 09:00:07 51°17.061 2°43.52 12.9727 0.146255 0.82895 -1.731873
2008-03-31 09:01:08 51°17.18 2°43.233 12.9863 0.146255 0.829101 -1.731873
2008-03-31 09:02:07 51°17.296 2°42.958 12.9993 0.146152 0.828625 -1.731873
2008-03-31 09:03:08 51°17.413 2°42.671 13.0128 0.146152 0.828776 -1.731873
2008-03-31 09:04:08 51°17.534 2°42.391 13.0258 0.146152 0.828912 -1.731873
2008-03-31 09:05:07 51°17.654 2°42.117 13.0391 0.146049 0.828451 -1.731873
2008-03-31 09:06:08 51°17.775 2°41.832 13.0521 0.146049 0.828602 -1.731873
2008-03-31 09:07:07 51°17.892 2°41.555 13.0653 0.146049 0.828737 -1.731873
2008-03-31 09:08:07 51°18.011 2°41.274 13.0787 0.146049 0.828873 -1.731873
2008-03-31 09:09:07 51°18.13 2°40.994 13.0922 0.146049 0.828993 -1.731873
2008-03-31 09:10:08 51°18.25 2°40.711 13.1053 0.145946 0.828518 -1.731873
2008-03-31 09:11:07 51°18.367 2°40.441 13.1197 0.145946 0.828653 -1.731873
2008-03-31 09:12:08 51°18.489 2°40.162 13.1337 0.145946 0.828789 -1.731873
2008-03-31 09:13:07 51°18.605 2°39.89 13.1478 0.145946 0.828895 -1.731873
2008-03-31 09:14:07 51°18.723 2°39.614 13.1618 0.145843 0.828403 -1.731873
2008-03-31 09:15:08 51°18.844 2°39.332 13.1764 0.145843 0.828554 -1.731873
2008-03-31 09:16:07 51°18.96 2°39.058 13.1906 0.145843 0.828675 -1.731873
2008-03-31 09:17:07 51°19.077 2°38.78 13.2054 0.145843 0.828781 -1.731873
2008-03-31 09:18:07 51°19.195 2°38.502 13.2199 0.14574 0.828304 -1.731873
2008-03-31 09:19:08 51°19.318 2°38.224 13.2348 0.14574 0.82841 -1.731873
2008-03-31 09:20:07 51°19.466 2°37.989 13.2491 0.14574 0.828531 -1.731873
2008-03-31 09:21:08 51°19.649 2°37.807 13.2644 0.14574 0.828682 -1.731873
2008-03-31 09:22:08 51°19.845 2°37.665 13.2786 0.14574 0.828788 -1.731873
2008-03-31 09:23:07 51°20.019 2°37.484 13.293 0.145638 0.82825 -1.731873
2008-03-31 09:24:08 51°20.137 2°37.308 13.3074 0.145638 0.828492 -1.766697
2008-03-31 09:25:07 51°20.133 2°37.196 13.321 0.145638 0.828522 -1.731873
2008-03-31 09:26:07 51°20.106 2°37.087 13.3348 0.145638 0.828628 -1.731873
2008-03-31 09:27:07 51°20.083 2°36.964 13.3485 0.145638 0.828825 -1.731873
2008-03-31 09:28:08 51°20.077 2°36.887 13.363 0.145535 0.828287 -1.731873
2008-03-31 09:29:08 51°20.082 2°36.863 13.378 0.145535 0.828439 -1.731873
2008-03-31 09:30:08 51°20.087 2°36.872 13.3932 0.145535 0.82859 -1.731873
2008-03-31 09:31:08 51°20.089 2°36.884 13.4087 0.145535 0.828726 -1.731873
2008-03-31 09:32:08 51°20.089 2°36.897 13.4245 0.145432 0.828279 -1.731873
2008-03-31 09:33:08 51°20.09 2°36.91 13.4404 0.145432 0.82843 -1.731873
2008-03-31 09:34:07 51°20.093 2°36.92 13.4565 0.145432 0.828582 -1.731873
2008-03-31 09:35:08 51°20.098 2°36.929 13.4724 0.145432 0.828718 -1.731873
2008-03-31 09:36:08 51°20.104 2°36.937 13.4889 0.145329 0.828225 -1.731873
2008-03-31 09:37:08 51°20.113 2°36.943 13.5047 0.145329 0.828362 -1.731873
2008-03-31 09:38:08 51°20.131 2°36.942 13.5211 0.145329 0.828513 -1.731873
2008-03-31 09:39:08 51°20.154 2°36.893 13.5374 0.145329 0.82862 -1.731873
2008-03-31 09:40:08 51°20.146 2°36.836 13.5521 0.145329 0.828711 -1.731873
2008-03-31 09:41:07 51°20.115 2°36.809 13.567 0.145226 0.828187 -1.731873
2008-03-31 09:42:08 51°20.083 2°36.818 13.5806 0.145226 0.828278 -1.731873
2008-03-31 09:43:08 51°20.062 2°36.836 13.5942 0.145226 0.828415 -1.731873
2008-03-31 09:44:08 51°20.053 2°36.854 13.6088 0.145226 0.828551 -1.731873
2008-03-31 09:45:08 51°20.057 2°36.863 13.6238 0.145226 0.828657 -1.731873
2008-03-31 09:46:08 51°20.065 2°36.867 13.6379 0.145123 0.828149 -1.731873
2008-03-31 09:47:08 51°20.073 2°36.874 13.6525 0.145123 0.82827 -1.731873
2008-03-31 09:48:07 51°20.081 2°36.884 13.6672 0.145123 0.828376 -1.766697
2008-03-31 09:49:08 51°20.091 2°36.902 13.6814 0.145123 0.828498 -1.731873
2008-03-31 09:50:07 51°20.099 2°36.923 13.6962 0.145123 0.828619 -1.731873
2008-03-31 09:51:07 51°20.106 2°36.94 13.7115 0.14502 0.828126 -1.731873
2008-03-31 09:52:08 51°20.114 2°36.954 13.7263 0.14502 0.828247 -1.766697
2008-03-31 09:53:08 51°20.122 2°36.965 13.7416 0.14502 0.828354 -1.731873
2008-03-31 09:54:08 51°20.129 2°36.976 13.7563 0.14502 0.828475 -1.731873
2008-03-31 09:55:08 51°20.136 2°36.986 13.7707 0.14502 0.828582 -1.731873
2008-03-31 09:56:08 51°20.143 2°36.994 13.7856 0.14502 0.828703 -1.731873
2008-03-31 09:57:08 51°20.151 2°37.001 13.7999 0.144917 0.828209 -1.731873
2008-03-31 09:58:08 51°20.158 2°37.008 13.8146 0.144917 0.828316 -1.731873
2008-03-31 09:59:08 51°20.165 2°37.015 13.829 0.144917 0.828437 -1.731873
2008-03-31 10:00:08 51°20.173 2°37.021 13.8435 0.144917 0.828559 -1.731873
2008-03-31 10:01:08 51°20.179 2°37.027 13.8583 0.144917 0.828681 -1.731873
2008-03-31 10:02:08 51°20.186 2°37.031 13.8728 0.144814 0.828171 -1.731873
2008-03-31 10:03:08 51°20.193 2°37.034 13.8876 0.144814 0.828278 -1.731873
2008-03-31 10:04:08 51°20.201 2°37.038 13.9018 0.144814 0.828369 -1.731873
2008-03-31 10:05:08 51°20.209 2°37.04 13.9167 0.144814 0.828461 -1.731873
2008-03-31 10:06:07 51°20.216 2°37.041 13.931 0.144814 0.828537 -1.731873
2008-03-31 10:07:08 51°20.224 2°37.041 13.9451 0.144711 0.828012 -1.731873
2008-03-31 10:08:08 51°20.232 2°37.042 13.9597 0.144711 0.828088 -1.731873
2008-03-31 10:09:07 51°20.24 2°37.041 13.9736 0.144711 0.828179 -1.731873
2008-03-31 10:10:08 51°20.248 2°37.041 13.9882 0.144711 0.828271 -1.731873
2008-03-31 10:11:08 51°20.255 2°37.04 14.0018 0.144711 0.828362 -1.731873
2008-03-31 10:12:08 51°20.263 2°37.038 14.0155 0.144711 0.828453 -1.731873
2008-03-31 10:13:08 51°20.27 2°37.037 14.0292 0.144711 0.82856 -1.731873
2008-03-31 10:14:08 51°20.277 2°37.035 14.0425 0.144711 0.828667 -1.731873
2008-03-31 10:15:08 51°20.285 2°37.035 14.0561 0.144608 0.828172 -1.731873
2008-03-31 10:16:08 51°20.292 2°37.034 14.0699 0.144608 0.828279 -1.731873
2008-03-31 10:17:08 51°20.299 2°37.033 14.0835 0.144608 0.828385 -1.731873
2008-03-31 10:18:08 51°20.306 2°37.032 14.0965 0.144608 0.828477 -1.731873
2008-03-31 10:19:08 51°20.312 2°37.031 14.1082 0.144608 0.828584 -1.731873
2008-03-31 10:20:08 51°20.32 2°37.03 14.1195 0.144608 0.82866 -1.731873
2008-03-31 10:21:08 51°20.327 2°37.029 14.1312 0.144506 0.828119 -1.766697
2008-03-31 10:22:08 51°20.329 2°37.09 14.1428 0.144506 0.828272 -1.731873
2008-03-31 10:23:08 51°20.276 2°37.122 14.1557 0.144506 0.828317 -1.731873
2008-03-31 10:24:08 51°20.226 2°37.098 14.1701 0.144506 0.828394 -1.766697
2008-03-31 10:25:08 51°20.195 2°37.066 14.1852 0.144506 0.828501 -1.731873
2008-03-31 10:26:08 51°20.182 2°37.045 14.2008 0.144506 0.828608 -1.731873
2008-03-31 10:27:08 51°20.183 2°37.04 14.2173 0.144506 0.828715 -1.731873
2008-03-31 10:28:08 51°20.186 2°37.034 14.2342 0.144403 0.828204 -1.731873
2008-03-31 10:29:08 51°20.189 2°37.028 14.2513 0.144403 0.828311 -1.731873
2008-03-31 10:30:08 51°20.193 2°37.022 14.2697 0.144403 0.828418 -1.731873
2008-03-31 10:31:07 51°20.198 2°37.015 14.288 0.144403 0.82854 -1.731873
2008-03-31 10:32:08 51°20.204 2°37.008 14.3069 0.144403 0.828647 -1.731873
2008-03-31 10:33:08 51°20.21 2°37.002 14.3269 0.144403 0.828754 -1.731873
2008-03-31 10:34:08 51°20.215 2°36.995 14.347 0.1443 0.828243 -1.731873
2008-03-31 10:35:08 51°20.221 2°36.988 14.3671 0.1443 0.82835 -1.731873
2008-03-31 10:36:08 51°20.228 2°36.983 14.3882 0.1443 0.828442 -1.766697
2008-03-31 10:37:08 51°20.234 2°36.976 14.409 0.1443 0.828533 -1.731873
2008-03-31 10:38:08 51°20.24 2°36.97 14.4303 0.1443 0.828625 -1.731873
2008-03-31 10:39:08 51°20.246 2°36.963 14.4522 0.1443 0.828702 -1.731873
2008-03-31 10:40:08 51°20.252 2°36.958 14.4748 0.144197 0.82816 -1.731873
2008-03-31 10:41:08 51°20.258 2°36.951 14.4974 0.144197 0.828236 -1.731873
2008-03-31 10:42:08 51°20.265 2°36.945 14.5207 0.144197 0.828313 -1.731873
2008-03-31 10:43:08 51°20.271 2°36.939 14.5435 0.144197 0.828389 -1.731873
2008-03-31 10:44:08 51°20.277 2°36.933 14.567 0.144197 0.82845 -1.731873
2008-03-31 10:45:08 51°20.282 2°36.926 14.5907 0.144197 0.828512 -1.731873
2008-03-31 10:46:08 51°20.287 2°36.92 14.6139 0.144197 0.828588 -1.731873
2008-03-31 10:47:07 51°20.292 2°36.912 14.6372 0.144197 0.82868 -1.731873
2008-03-31 10:48:08 51°20.295 2°36.863 14.6606 0.144197 0.828788 -1.731873
2008-03-31 10:49:08 51°20.263 2°36.819 14.6849 0.144197 0.828834 -1.731873
2008-03-31 10:50:08 51°20.226 2°36.803 14.7085 0.144094 0.828245 -1.731873
2008-03-31 10:51:08 51°20.2 2°36.797 14.7317 0.144094 0.828337 -1.731873
2008-03-31 10:52:08 51°20.18 2°36.795 14.7555 0.144094 0.828398 -1.731873
2008-03-31 10:53:08 51°20.166 2°36.793 14.7791 0.144094 0.82846 -1.731873
2008-03-31 10:54:08 51°20.155 2°36.789 14.8026 0.144094 0.828521 -1.731873
2008-03-31 10:55:08 51°20.146 2°36.786 14.8261 0.144094 0.828598 -1.731873
2008-03-31 10:56:08 51°20.139 2°36.782 14.8494 0.144094 0.828674 -1.731873
2008-03-31 10:57:08 51°20.133 2°36.776 14.8723 0.144094 0.828766 -1.731873
2008-03-31 10:58:08 51°20.128 2°36.77 14.8953 0.143991 0.828254 -1.731873
2008-03-31 10:59:08 51°20.125 2°36.763 14.9183 0.143991 0.828346 -1.731873
2008-03-31 11:00:08 51°20.124 2°36.756 14.9411 0.143991 0.828453 -1.731873
2008-03-31 11:01:08 51°20.123 2°36.748 14.9637 0.143991 0.828576 -1.731873
2008-03-31 11:02:08 51°20.123 2°36.741 14.9864 0.143991 0.828668 -1.731873
2008-03-31 11:03:08 51°20.123 2°36.733 15.0087 0.143991 0.828776 -1.731873
2008-03-31 11:04:08 51°20.124 2°36.727 15.0316 0.143991 0.828868 -1.731873
2008-03-31 11:05:08 51°20.126 2°36.72 15.0541 0.143888 0.828355 -1.731873
2008-03-31 11:06:08 51°20.128 2°36.712 15.0762 0.143888 0.828447 -1.731873
2008-03-31 11:07:08 51°20.13 2°36.705 15.0984 0.143888 0.828555 -1.731873
2008-03-31 11:08:08 51°20.133 2°36.698 15.1202 0.143888 0.828632 -1.731873
2008-03-31 11:09:08 51°20.136 2°36.691 15.1421 0.143888 0.828724 -1.731873
2008-03-31 11:10:08 51°20.139 2°36.684 15.1637 0.143888 0.828832 -1.731873
2008-03-31 11:11:08 51°20.142 2°36.677 15.1848 0.143888 0.828909 -1.731873
2008-03-31 11:12:08 51°20.145 2°36.67 15.2063 0.143785 0.82838 -1.731873
2008-03-31 11:13:08 51°20.148 2°36.663 15.2271 0.143785 0.828457 -1.731873
2008-03-31 11:14:08 51°20.15 2°36.657 15.2477 0.143785 0.828534 -1.731873
2008-03-31 11:15:08 51°20.153 2°36.652 15.2679 0.143785 0.828595 -1.731873
2008-03-31 11:16:08 51°20.155 2°36.646 15.288 0.143785 0.828657 -1.731873
2008-03-31 11:17:08 51°20.156 2°36.641 15.3083 0.143785 0.828703 -1.731873
2008-03-31 11:18:08 51°20.176 2°36.633 15.3279 0.143785 0.828765 -1.731873
2008-03-31 11:19:08 51°20.226 2°36.616 15.3473 0.143785 0.828826 -1.731873
2008-03-31 11:20:08 51°20.265 2°36.603 15.3666 0.143785 0.828888 -1.766697
2008-03-31 11:21:08 51°20.294 2°36.591 15.3856 0.143682 0.828328 -1.731873
2008-03-31 11:22:08 51°20.315 2°36.577 15.4032 0.143682 0.828374 -1.731873
2008-03-31 11:23:08 51°20.333 2°36.562 15.4214 0.143682 0.82842 -1.731873
2008-03-31 11:24:08 51°20.363 2°36.556 15.4387 0.143682 0.828482 -1.731873
2008-03-31 11:25:08 51°20.385 2°36.616 15.4561 0.143682 0.828574 -1.731873
2008-03-31 11:26:08 51°20.349 2°36.672 15.4724 0.143682 0.828605 -1.731873
2008-03-31 11:27:08 51°20.245 2°36.706 15.4898 0.143682 0.828621 -1.731873
2008-03-31 11:28:08 51°20.129 2°36.777 15.5067 0.143682 0.828713 -1.731873
2008-03-31 11:29:08 51°20.091 2°36.825 15.5232 0.143682 0.828759 -1.731873
2008-03-31 11:30:08 51°20.079 2°36.851 15.5402 0.143682 0.828821 -1.731873
2008-03-31 11:31:08 51°20.072 2°36.856 15.5569 0.143682 0.828867 -1.731873
2008-03-31 11:32:08 51°20.068 2°36.857 15.5733 0.143682 0.828898 -1.731873
2008-03-31 11:33:08 51°20.063 2°36.856 15.5892 0.143682 0.828944 -1.731873
2008-03-31 11:34:08 51°20.055 2°36.858 15.6046 0.143682 0.829006 -1.731873
2008-03-31 11:35:08 51°20.043 2°36.902 15.6203 0.143579 0.828492 -1.731873
2008-03-31 11:36:08 51°20.071 2°36.957 15.6368 0.143579 0.828523 -1.731873
2008-03-31 11:37:08 51°20.11 2°36.965 15.6523 0.143579 0.828523 -1.731873
2008-03-31 11:38:08 51°20.127 2°36.954 15.6678 0.143579 0.8286 -1.731873
2008-03-31 11:39:08 51°20.127 2°36.946 15.6841 0.143579 0.828677 -1.731873
2008-03-31 11:40:08 51°20.123 2°36.941 15.7001 0.143579 0.828738 -1.731873
2008-03-31 11:41:08 51°20.119 2°36.939 15.7165 0.143579 0.828769 -1.731873
2008-03-31 11:42:08 51°20.114 2°36.932 15.7321 0.143579 0.8288 -1.731873
2008-03-31 11:43:08 51°20.109 2°36.926 15.7469 0.143579 0.828846 -1.731873
2008-03-31 11:44:08 51°20.105 2°36.92 15.7617 0.143579 0.828877 -1.731873
2008-03-31 11:45:08 51°20.1 2°36.915 15.7761 0.143579 0.828923 -1.731873
2008-03-31 11:46:08 51°20.093 2°36.908 15.7906 0.143579 0.828954 -1.731873
2008-03-31 11:47:08 51°20.089 2°36.901 15.8049 0.143579 0.829001 -1.731873
2008-03-31 11:48:08 51°20.087 2°36.892 15.8188 0.143579 0.829031 -1.731873
2008-03-31 11:49:08 51°20.085 2°36.882 15.8326 0.143579 0.829078 -1.731873
2008-03-31 11:50:08 51°20.083 2°36.873 15.8463 0.143579 0.829109 -1.731873
2008-03-31 11:51:08 51°20.091 2°36.863 15.8601 0.143579 0.829139 -1.731873
2008-03-31 11:52:08 51°20.111 2°36.848 15.8737 0.143579 0.829155 -1.731873
2008-03-31 11:53:08 51°20.134 2°36.851 15.8869 0.143476 0.828579 -1.731873
2008-03-31 11:54:08 51°20.15 2°36.877 15.9001 0.143476 0.82861 -1.731873
2008-03-31 11:55:08 51°20.15 2°36.911 15.9126 0.143476 0.828625 -1.731873
2008-03-31 11:56:08 51°20.144 2°36.93 15.9249 0.143476 0.828641 -1.731873
2008-03-31 11:57:08 51°20.139 2°36.936 15.9373 0.143476 0.828672 -1.731873
2008-03-31 11:58:08 51°20.136 2°36.936 15.95 0.143476 0.828687 -1.731873
2008-03-31 11:59:08 51°20.133 2°36.932 15.9629 0.143476 0.828718 -1.731873
2008-03-31 12:00:08 51°20.13 2°36.928 15.9758 0.143476 0.828749 -1.731873
2008-03-31 12:01:08 51°20.127 2°36.924 15.989 0.143476 0.828764 -1.731873
2008-03-31 12:02:08 51°20.121 2°36.92 16.0009 0.143476 0.82881 -1.731873
2008-03-31 12:03:08 51°20.116 2°36.915 16.0129 0.143476 0.828826 -1.731873
2008-03-31 12:04:08 51°20.11 2°36.91 16.025 0.143476 0.828857 -1.731873
2008-03-31 12:05:08 51°20.104 2°36.904 16.0373 0.143476 0.828888 -1.731873
2008-03-31 12:06:08 51°20.097 2°36.897 16.0493 0.143476 0.828934 -1.731873
2008-03-31 12:07:08 51°20.092 2°36.889 16.0609 0.143476 0.828965 -1.731873
2008-03-31 12:08:08 51°20.087 2°36.879 16.0729 0.143476 0.829011 -1.731873
2008-03-31 12:09:08 51°20.082 2°36.87 16.085 0.143476 0.829042 -1.731873
2008-03-31 12:10:08 51°20.079 2°36.86 16.0966 0.143476 0.829088 -1.731873
2008-03-31 12:11:08 51°20.082 2°36.85 16.1086 0.143476 0.829135 -1.731873
2008-03-31 12:12:08 51°20.086 2°36.84 16.1202 0.143476 0.829166 -1.731873
2008-03-31 12:13:08 51°20.088 2°36.829 16.1323 0.143476 0.829212 -1.731873
2008-03-31 12:14:08 51°20.09 2°36.817 16.1429 0.143476 0.829227 -1.731873
2008-03-31 12:15:08 51°20.088 2°36.806 16.154 0.143476 0.829258 -1.731873
2008-03-31 12:16:08 51°20.058 2°36.819 16.1647 0.143476 0.829289 -1.731873
2008-03-31 12:17:08 51°20.007 2°36.858 16.1745 0.143476 0.829289 -1.731873
2008-03-31 12:18:08 51°19.917 2°36.942 16.1847 0.143476 0.829336 -1.731873
2008-03-31 12:19:08 51°19.808 2°37.06 16.1947 0.143476 0.829351 -1.731873
2008-03-31 12:20:08 51°19.691 2°37.184 16.2051 0.143476 0.829366 -1.731873
2008-03-31 12:21:08 51°19.561 2°37.317 16.2149 0.143476 0.829397 -1.731873
2008-03-31 12:22:08 51°19.425 2°37.467 16.2247 0.143476 0.829444 -1.731873
2008-03-31 12:23:07 51°19.291 2°37.615 16.2343 0.143476 0.829475 -1.731873
2008-03-31 12:24:08 51°19.151 2°37.769 16.2444 0.143476 0.829537 -1.731873
2008-03-31 12:25:08 51°19.013 2°37.918 16.2542 0.143476 0.829629 -1.731873
2008-03-31 12:26:08 51°18.873 2°38.068 16.2641 0.143374 0.829115 -1.731873
2008-03-31 12:27:08 51°18.734 2°38.22 16.2741 0.143374 0.829223 -1.731873
2008-03-31 12:28:08 51°18.595 2°38.373 16.2841 0.143374 0.829331 -1.731873
2008-03-31 12:29:08 51°18.457 2°38.525 16.294 0.143374 0.82947 -1.731873
2008-03-31 12:30:08 51°18.318 2°38.677 16.3043 0.143374 0.829594 -1.731873
2008-03-31 12:31:08 51°18.182 2°38.832 16.3139 0.143271 0.829126 -1.731873
2008-03-31 12:32:08 51°18.045 2°38.987 16.3243 0.143271 0.829265 -1.731873
2008-03-31 12:33:08 51°17.896 2°39.106 16.334 0.143271 0.829435 -1.731873
2008-03-31 12:34:08 51°17.733 2°39.184 16.3442 0.143271 0.82959 -1.731873
2008-03-31 12:35:08 51°17.572 2°39.259 16.3542 0.143168 0.829152 -1.731873
2008-03-31 12:36:08 51°17.414 2°39.337 16.3638 0.143168 0.829369 -1.731873
2008-03-31 12:37:08 51°17.258 2°39.413 16.3734 0.143168 0.829555 -1.731873
2008-03-31 12:38:08 51°17.102 2°39.491 16.3831 0.143065 0.829132 -1.731873
2008-03-31 12:39:08 51°16.943 2°39.565 16.3928 0.143065 0.829334 -1.731873
2008-03-31 12:40:08 51°16.786 2°39.647 16.4025 0.143065 0.829505 -1.731873
2008-03-31 12:41:08 51°16.627 2°39.731 16.4121 0.142962 0.829082 -1.731873
2008-03-31 12:42:08 51°16.474 2°39.812 16.4218 0.142962 0.829284 -1.731873
2008-03-31 12:43:08 51°16.326 2°39.889 16.4311 0.142859 0.828845 -1.731873
2008-03-31 12:44:08 51°16.178 2°39.968 16.4408 0.142859 0.829031 -1.731873
2008-03-31 12:45:08 51°16.029 2°40.045 16.4502 0.142859 0.829202 -1.731873
2008-03-31 12:46:08 51°15.88 2°40.123 16.4596 0.142756 0.828763 -1.731873
2008-03-31 12:47:08 51°15.731 2°40.2 16.4692 0.142756 0.82895 -1.731873
2008-03-31 12:48:08 51°15.584 2°40.28 16.4782 0.142653 0.828526 -1.731873
2008-03-31 12:49:08 51°15.436 2°40.358 16.4875 0.142653 0.828744 -1.731873
2008-03-31 12:50:08 51°15.297 2°40.456 16.4963 0.142653 0.828977 -1.731873
2008-03-31 12:51:08 51°15.168 2°40.579 16.5027 0.14255 0.828584 -1.731873
2008-03-31 12:52:08 51°15.041 2°40.706 16.5081 0.14255 0.828849 -1.731873
2008-03-31 12:53:08 51°14.929 2°40.863 16.5114 0.142447 0.828424 -1.731873
2008-03-31 12:54:08 51°14.816 2°41.019 16.5132 0.142447 0.828642 -1.731873
2008-03-31 12:55:08 51°14.713 2°41.186 16.514 0.142344 0.828265 -1.731873
2008-03-31 12:56:08 51°14.634 2°41.381 16.5148 0.142344 0.82853 -1.731873
2008-03-31 12:57:08 51°14.588 2°41.6 16.5149 0.142242 0.828089 -1.731873
2008-03-31 12:58:08 51°14.538 2°41.82 16.5157 0.142242 0.828323 -1.731873
2008-03-31 12:59:08 51°14.52 2°42.046 16.5165 0.142139 0.827945 -1.731873
2008-03-31 13:00:08 51°14.533 2°42.275 16.5176 0.142139 0.828164 -1.731873
2008-03-31 13:01:08 51°14.544 2°42.505 16.5186 0.142139 0.828351 -1.731873
2008-03-31 13:02:08 51°14.553 2°42.736 16.5192 0.142036 0.82791 -1.731873
2008-03-31 13:03:08 51°14.561 2°42.967 16.5204 0.142036 0.828082 -1.731873
2008-03-31 13:04:08 51°14.567 2°43.198 16.5211 0.141933 0.82761 -1.731873
2008-03-31 13:05:08 51°14.573 2°43.427 16.5217 0.141933 0.827735 -1.731873
2008-03-31 13:06:08 51°14.578 2°43.658 16.5227 0.141933 0.827875 -1.731873
2008-03-31 13:07:08 51°14.585 2°43.887 16.5238 0.14183 0.827387 -1.731873
2008-03-31 13:08:08 51°14.591 2°44.117 16.5247 0.14183 0.827528 -1.731873
2008-03-31 13:09:08 51°14.597 2°44.347 16.5261 0.14183 0.827653 -1.731873
2008-03-31 13:10:08 51°14.604 2°44.577 16.5272 0.141727 0.827164 -1.731873
2008-03-31 13:11:08 51°14.609 2°44.806 16.5281 0.141727 0.827305 -1.731873
2008-03-31 13:12:08 51°14.615 2°45.035 16.5291 0.141727 0.827446 -1.731873
2008-03-31 13:13:08 51°14.62 2°45.265 16.5298 0.141727 0.827571 -1.731873
2008-03-31 13:14:08 51°14.625 2°45.494 16.5312 0.141624 0.827082 -1.731873
2008-03-31 13:15:08 51°14.631 2°45.724 16.5332 0.141624 0.827223 -1.731873
2008-03-31 13:16:08 51°14.636 2°45.954 16.534 0.141624 0.827364 -1.731873
2008-03-31 13:17:08 51°14.641 2°46.185 16.5352 0.141624 0.827504 -1.731873
2008-03-31 13:18:08 51°14.646 2°46.417 16.5368 0.141521 0.827016 -1.731873
2008-03-31 13:19:08 51°14.65 2°46.647 16.5385 0.141521 0.827141 -1.731873
2008-03-31 13:20:08 51°14.656 2°46.889 16.5399 0.141521 0.827266 -1.731873
2008-03-31 13:21:08 51°14.663 2°47.139 16.5411 0.141521 0.827391 -1.731873
2008-03-31 13:22:08 51°14.669 2°47.39 16.5428 0.141418 0.826886 -1.731873
2008-03-31 13:23:08 51°14.673 2°47.641 16.5446 0.141418 0.827012 -1.731873
2008-03-31 13:24:08 51°14.679 2°47.892 16.5461 0.141418 0.827121 -1.731873
2008-03-31 13:25:08 51°14.685 2°48.145 16.5476 0.141418 0.827247 -1.731873
2008-03-31 13:26:08 51°14.69 2°48.4 16.5501 0.141418 0.827388 -1.731873
2008-03-31 13:27:08 51°14.696 2°48.654 16.552 0.141315 0.826883 -1.731873
2008-03-31 13:28:08 51°14.7 2°48.908 16.5541 0.141315 0.827024 -1.731873
2008-03-31 13:29:08 51°14.704 2°49.163 16.5564 0.141315 0.827133 -1.731873
2008-03-31 13:30:08 51°14.709 2°49.419 16.5581 0.141315 0.827259 -1.731873
2008-03-31 13:31:08 51°14.714 2°49.672 16.5605 0.141212 0.826738 -1.731873
2008-03-31 13:32:08 51°14.719 2°49.926 16.5629 0.141212 0.826847 -1.731873
2008-03-31 13:33:08 51°14.722 2°50.179 16.5658 0.141212 0.826957 -1.731873
2008-03-31 13:34:08 51°14.728 2°50.431 16.568 0.141212 0.827051 -1.731873
2008-03-31 13:35:08 51°14.733 2°50.688 16.5703 0.141212 0.82713 -1.731873
2008-03-31 13:36:08 51°14.736 2°50.959 16.5732 0.14111 0.826593 -1.731873
2008-03-31 13:37:08 51°14.744 2°51.232 16.5764 0.14111 0.826671 -1.731873
2008-03-31 13:38:08 51°14.751 2°51.505 16.5797 0.14111 0.82675 -1.731873
2008-03-31 13:39:08 51°14.758 2°51.779 16.5829 0.14111 0.826844 -1.731873
2008-03-31 13:40:08 51°14.766 2°52.059 16.5859 0.14111 0.826938 -1.731873
2008-03-31 13:41:08 51°14.771 2°52.341 16.5894 0.14111 0.827016 -1.731873
2008-03-31 13:42:08 51°14.78 2°52.624 16.5923 0.14111 0.827111 -1.731873
2008-03-31 13:43:08 51°14.786 2°52.917 16.5955 0.141007 0.826589 -1.731873
2008-03-31 13:44:08 51°14.796 2°53.217 16.5977 0.141007 0.826667 -1.731873
2008-03-31 13:45:08 51°14.771 2°53.519 16.6012 0.141007 0.826777 -1.731873
2008-03-31 13:46:08 51°14.727 2°53.816 16.6046 0.141007 0.826872 -1.731873
2008-03-31 13:47:08 51°14.656 2°54.101 16.6078 0.141007 0.826997 -1.731873
2008-03-31 13:48:08 51°14.59 2°54.388 16.6113 0.141007 0.827107 -1.731873
2008-03-31 13:49:08 51°14.502 2°54.667 16.615 0.140904 0.826617 -1.731873
2008-03-31 13:50:08 51°14.397 2°54.943 16.6188 0.140904 0.826805 -1.731873
2008-03-31 13:51:08 51°14.281 2°55.21 16.6229 0.140904 0.826978 -1.731873
2008-03-31 13:52:11 51°14.138 2°55.404 16.6265 0.140904 0.827167 -1.766697
2008-03-31 13:53:11 51°14.009 2°55.501 16.6303 0.140801 0.826739 -1.731873
2008-03-31 13:54:12 51°13.889 2°55.587 16.6342 0.140801 0.826912 -1.731873
2008-03-31 13:55:12 51°13.791 2°55.67 16.6379 0.140801 0.827086 -1.731873
2008-03-31 13:56:12 51°13.743 2°55.734 16.6416 0.140698 0.826579 -1.731873
2008-03-31 13:57:12 51°13.711 2°55.798 16.6458 0.140698 0.826705 -1.731873
2008-03-31 13:58:12 51°13.678 2°55.872 16.6497 0.140698 0.826831 -1.731873
2008-03-31 13:59:12 51°13.656 2°55.949 16.6526 0.140595 0.826308 -1.731873
2008-03-31 14:00:12 51°13.65 2°55.982 16.6564 0.140595 0.826402 -1.731873
2008-03-31 14:01:12 51°13.649 2°55.981 16.6603 0.140595 0.826497 -1.731873